Time;durP1;ratioP1;P1;durP2;ratioP2;P2;SDS_P1;SDS_P2;PMS_P1;PMS_P2;Temp;Humidity;BMP_temperature;BMP_pressure;BME280_temperature;BME280_humidity;BME280_pressure;Samples;Min_cycle;Max_cycle;Signal;HPM_P1;HPM_P2
2022/04/28 00:01:09;;;;;;;5.40;3.17;;;17.30;88.00;;;;;;4959179;28;20765;-73
2022/04/28 00:03:38;;;;;;;6.20;3.53;;;17.30;87.50;;;;;;4962001;28;20192;-72
2022/04/28 00:06:07;;;;;;;6.93;3.90;;;17.30;87.50;;;;;;4961096;28;20754;-73
2022/04/28 00:08:37;;;;;;;7.17;4.50;;;17.20;87.60;;;;;;4961258;28;20209;-73
2022/04/28 00:11:05;;;;;;;5.97;3.53;;;17.20;87.70;;;;;;4960655;28;20217;-72
2022/04/28 00:13:33;;;;;;;6.73;3.80;;;17.20;87.50;;;;;;4962832;28;20197;-76
2022/04/28 00:16:01;;;;;;;7.17;3.83;;;17.20;87.80;;;;;;4963026;28;20734;-71
2022/04/28 00:18:30;;;;;;;6.33;4.03;;;17.20;87.90;;;;;;4967340;28;20193;-72
2022/04/28 00:20:58;;;;;;;6.37;3.73;;;17.20;88.10;;;;;;4963663;28;20205;-74
2022/04/28 00:23:27;;;;;;;6.90;4.03;;;17.20;88.90;;;;;;4963458;28;20204;-73
2022/04/28 00:25:57;;;;;;;7.80;3.60;;;17.20;88.40;;;;;;4963024;28;20189;-72
2022/04/28 00:28:25;;;;;;;6.13;4.10;;;17.20;88.00;;;;;;4964435;28;20201;-72
2022/04/28 00:30:53;;;;;;;8.20;4.07;;;17.10;88.80;;;;;;4963766;28;20229;-75
2022/04/28 00:33:22;;;;;;;8.03;3.93;;;17.10;88.30;;;;;;4966672;28;20794;-73
2022/04/28 00:35:50;;;;;;;8.60;3.73;;;17.10;88.60;;;;;;4964112;28;20198;-75
2022/04/28 00:38:18;;;;;;;5.70;3.77;;;17.10;89.00;;;;;;4965135;28;20686;-72
2022/04/28 00:40:47;;;;;;;6.90;4.17;;;17.10;88.90;;;;;;4964627;28;20208;-74
2022/04/28 00:43:20;;;;;;;7.27;4.43;;;17.00;89.30;;;;;;4962733;28;20522;-74
2022/04/28 00:45:49;;;;;;;6.80;4.47;;;17.00;89.30;;;;;;4964392;28;20228;-75
2022/04/28 00:51:06;;;;;;;6.37;4.40;;;17.00;89.00;;;;;;4962408;28;20218;-73
2022/04/28 00:53:36;;;;;;;10.80;4.20;;;17.10;89.10;;;;;;4960022;28;20840;-74
2022/04/28 00:56:06;;;;;;;6.03;3.90;;;17.00;89.40;;;;;;4963110;28;20233;-74
2022/04/28 00:58:39;;;;;;;7.97;4.33;;;17.00;89.30;;;;;;4962317;28;20695;-74
2022/04/28 01:01:08;;;;;;;6.10;3.93;;;17.00;89.30;;;;;;4963989;28;20194;-72
2022/04/28 01:03:37;;;;;;;9.47;4.63;;;16.90;89.30;;;;;;4963763;28;20226;-74
2022/04/28 01:06:05;;;;;;;9.93;4.23;;;17.00;89.10;;;;;;4963125;28;20201;-74
2022/04/28 01:08:33;;;;;;;7.30;4.07;;;16.90;89.00;;;;;;4965528;28;20212;-74
2022/04/28 01:11:02;;;;;;;7.33;4.07;;;16.90;89.00;;;;;;4963604;28;20198;-74
2022/04/28 01:13:31;;;;;;;7.10;3.70;;;16.90;89.00;;;;;;4963031;28;20201;-72
2022/04/28 01:16:01;;;;;;;7.77;4.37;;;16.90;88.70;;;;;;4964515;28;20205;-72
2022/04/28 01:18:29;;;;;;;5.87;3.93;;;16.90;88.80;;;;;;4963293;28;20804;-75
2022/04/28 01:21:03;;;;;;;8.30;4.30;;;16.90;89.00;;;;;;4961149;28;20209;-72
2022/04/28 01:23:33;;;;;;;7.00;3.93;;;16.90;88.80;;;;;;4965613;28;20228;-73
2022/04/28 01:26:01;;;;;;;6.37;3.77;;;16.90;88.60;;;;;;4960861;28;20202;-75
2022/04/28 01:28:31;;;;;;;8.27;3.70;;;16.90;88.80;;;;;;4962021;28;20906;-75
2022/04/28 01:31:00;;;;;;;5.53;3.50;;;17.00;88.30;;;;;;4964461;28;20229;-74
2022/04/28 01:33:29;;;;;;;5.80;3.83;;;17.00;88.00;;;;;;4960589;28;20206;-73
2022/04/28 01:35:58;;;;;;;6.57;3.93;;;17.00;87.70;;;;;;4963004;28;20212;-74
2022/04/28 01:38:28;;;;;;;6.17;3.67;;;17.00;87.50;;;;;;4962499;28;20198;-72
2022/04/28 01:40:57;;;;;;;6.50;4.10;;;17.10;87.40;;;;;;4962460;28;21133;-73
2022/04/28 01:43:26;;;;;;;6.03;3.87;;;17.10;87.30;;;;;;4962747;28;20196;-74
2022/04/28 01:45:54;;;;;;;6.97;3.70;;;17.10;87.40;;;;;;4963539;28;20193;-73
2022/04/28 01:48:22;;;;;;;6.57;3.80;;;17.10;87.40;;;;;;4961988;28;20251;-74
2022/04/28 01:56:20;;;;;;;5.80;3.67;;;17.10;87.70;;;;;;4961111;28;20644;-74
2022/04/28 01:58:49;;;;;;;5.50;3.97;;;17.10;87.50;;;;;;4961528;28;20202;-74
2022/04/28 02:01:17;;;;;;;7.47;3.67;;;17.10;87.60;;;;;;4961461;28;20216;-74
2022/04/28 02:03:45;;;;;;;7.93;3.60;;;17.10;88.10;;;;;;4962650;28;20900;-73
2022/04/28 02:06:14;;;;;;;7.17;4.17;;;17.10;88.60;;;;;;4963116;28;21848;-73
2022/04/28 02:08:44;;;;;;;6.40;4.10;;;17.00;89.10;;;;;;4962733;28;20193;-74
2022/04/28 02:11:13;;;;;;;6.83;4.30;;;17.00;89.80;;;;;;4960851;28;20209;-73
2022/04/28 02:13:42;;;;;;;7.80;4.20;;;17.00;90.10;;;;;;4962200;28;20213;-75
2022/04/28 02:16:10;;;;;;;7.30;4.67;;;16.90;90.80;;;;;;4961191;28;20659;-74
2022/04/28 02:18:39;;;;;;;7.27;4.60;;;16.90;90.50;;;;;;4960055;28;20852;-74
2022/04/28 02:21:07;;;;;;;7.87;4.67;;;16.80;90.70;;;;;;4961526;28;20205;-76
2022/04/28 02:23:36;;;;;;;6.47;3.90;;;16.70;91.20;;;;;;4959914;28;20304;-76
2022/04/28 02:26:05;;;;;;;11.57;4.13;;;16.70;91.40;;;;;;4959713;28;20214;-75
2022/04/28 02:28:34;;;;;;;7.00;4.80;;;16.70;91.00;;;;;;4962758;28;20286;-76
2022/04/28 02:31:02;;;;;;;6.27;4.47;;;16.70;91.00;;;;;;4961445;28;20216;-76
2022/04/28 02:33:31;;;;;;;9.13;4.80;;;16.70;91.00;;;;;;4959796;28;20225;-76
2022/04/28 02:35:59;;;;;;;7.50;4.30;;;16.70;91.20;;;;;;4962320;28;20212;-76
2022/04/28 02:38:27;;;;;;;7.63;4.90;;;16.70;91.10;;;;;;4962926;28;20193;-75
2022/04/28 02:40:56;;;;;;;8.53;4.07;;;16.60;91.50;;;;;;4961297;28;22214;-75
2022/04/28 02:43:25;;;;;;;6.77;3.90;;;16.70;91.00;;;;;;4961942;28;20879;-75
2022/04/28 02:45:54;;;;;;;7.13;3.77;;;16.70;90.90;;;;;;4960342;28;20197;-75
2022/04/28 02:48:23;;;;;;;7.13;4.40;;;16.70;90.90;;;;;;4962369;28;20202;-76
2022/04/28 02:50:52;;;;;;;5.93;4.07;;;16.70;90.90;;;;;;4961605;28;20204;-74
2022/04/28 02:53:20;;;;;;;7.23;4.33;;;16.70;91.20;;;;;;4961607;28;20282;-75
2022/04/28 02:55:48;;;;;;;7.60;4.37;;;16.70;91.00;;;;;;4962259;28;20663;-77
2022/04/28 02:58:17;;;;;;;7.33;4.50;;;16.70;91.20;;;;;;4961216;28;20213;-75
2022/04/28 03:00:47;;;;;;;7.30;4.80;;;16.60;91.80;;;;;;4960616;28;20193;-76
2022/04/28 03:03:15;;;;;;;8.63;4.80;;;16.60;91.80;;;;;;4961870;28;20201;-78
2022/04/28 03:11:17;;;;;;;7.07;4.83;;;16.50;92.60;;;;;;4961186;28;20224;-76
2022/04/28 03:13:46;;;;;;;7.47;4.90;;;16.50;92.30;;;;;;4959409;28;20236;-75
2022/04/28 03:16:17;;;;;;;8.57;5.53;;;16.50;92.60;;;;;;4960836;28;20205;-75
2022/04/28 03:18:46;;;;;;;11.83;5.80;;;16.50;92.80;;;;;;4962404;28;20193;-77
2022/04/28 03:21:15;;;;;;;10.67;5.40;;;16.40;93.00;;;;;;4959628;28;20198;-72
2022/04/28 03:23:46;;;;;;;7.60;5.20;;;16.40;93.20;;;;;;4961664;28;20967;-75
2022/04/28 03:26:15;;;;;;;9.23;5.27;;;16.40;93.10;;;;;;4961744;28;20190;-75
2022/04/28 03:28:43;;;;;;;9.47;5.20;;;16.30;93.20;;;;;;4958486;28;20212;-76
2022/04/28 03:31:11;;;;;;;9.40;5.40;;;16.30;93.30;;;;;;4961762;28;20725;-76
2022/04/28 03:33:41;;;;;;;8.50;5.47;;;16.30;93.30;;;;;;4962139;28;20282;-78
2022/04/28 03:38:52;;;;;;;9.23;5.80;;;16.30;93.10;;;;;;4959364;28;20194;-75
2022/04/28 03:41:20;;;;;;;8.47;5.87;;;16.30;93.40;;;;;;4960602;28;20202;-75
2022/04/28 03:43:49;;;;;;;8.80;5.93;;;16.30;93.40;;;;;;4960551;28;20193;-75
2022/04/28 03:46:18;;;;;;;9.70;5.70;;;16.20;93.60;;;;;;4960566;28;20208;-74
2022/04/28 03:48:48;;;;;;;8.70;5.87;;;16.10;93.50;;;;;;4962202;28;20524;-76
2022/04/28 03:51:17;;;;;;;9.73;5.50;;;16.20;93.40;;;;;;4966670;28;20293;-75
2022/04/28 03:53:45;;;;;;;9.53;5.43;;;16.20;93.40;;;;;;4965772;28;20245;-74
2022/04/28 03:56:13;;;;;;;9.47;5.67;;;16.20;93.30;;;;;;4963447;28;20230;-75
2022/04/28 03:58:42;;;;;;;10.23;5.70;;;16.10;93.20;;;;;;4964719;28;20193;-77
2022/04/28 04:01:10;;;;;;;7.90;5.20;;;16.20;93.20;;;;;;4963232;28;20197;-76
2022/04/28 04:03:39;;;;;;;7.93;5.13;;;16.20;93.00;;;;;;4961821;28;20901;-76
2022/04/28 04:06:09;;;;;;;7.50;5.20;;;16.20;92.90;;;;;;4963730;28;20208;-75
2022/04/28 04:08:37;;;;;;;8.40;5.33;;;16.20;92.80;;;;;;4964355;28;20206;-75
2022/04/28 04:11:07;;;;;;;9.07;5.30;;;16.20;92.70;;;;;;4963517;28;20639;-73
2022/04/28 04:13:36;;;;;;;10.47;5.53;;;16.20;92.70;;;;;;4964762;28;20722;-73
2022/04/28 04:16:06;;;;;;;8.50;5.27;;;16.20;92.60;;;;;;4965693;28;20201;-74
2022/04/28 04:18:34;;;;;;;8.70;5.70;;;16.10;92.60;;;;;;4964466;28;20198;-74
2022/04/28 04:21:03;;;;;;;9.67;5.10;;;16.10;92.50;;;;;;4966704;28;20202;-75
2022/04/28 04:23:33;;;;;;;9.87;5.20;;;16.10;92.50;;;;;;4963281;28;20567;-74
2022/04/28 04:26:02;;;;;;;8.83;5.63;;;16.10;92.60;;;;;;4964146;28;20201;-74
2022/04/28 04:28:31;;;;;;;9.27;5.77;;;16.10;92.40;;;;;;4962957;28;20194;-74
2022/04/28 04:33:44;;;;;;;9.27;5.40;;;16.20;92.80;;;;;;4965856;28;20283;-73
2022/04/28 04:36:13;;;;;;;9.53;5.70;;;16.20;92.40;;;;;;4963996;28;20204;-73
2022/04/28 04:38:42;;;;;;;9.87;5.60;;;16.20;92.60;;;;;;4966061;28;20208;-73
2022/04/28 04:41:11;;;;;;;9.67;5.70;;;16.20;92.40;;;;;;4963439;28;20249;-73
2022/04/28 04:43:40;;;;;;;7.80;5.57;;;16.30;92.60;;;;;;4964683;28;20205;-74
2022/04/28 04:46:08;;;;;;;9.27;5.60;;;16.20;92.60;;;;;;4965789;28;20765;-73
2022/04/28 04:48:38;;;;;;;8.90;5.70;;;16.30;92.60;;;;;;4960481;28;20201;-73
2022/04/28 04:51:07;;;;;;;11.27;5.37;;;16.30;92.50;;;;;;4963602;28;21274;-74
2022/04/28 04:53:35;;;;;;;8.40;5.90;;;16.30;92.40;;;;;;4964742;28;20709;-74
2022/04/28 04:56:05;;;;;;;10.07;5.30;;;16.40;92.30;;;;;;4961839;28;20845;-73
2022/04/28 04:58:34;;;;;;;8.20;5.13;;;16.40;92.20;;;;;;4959189;28;20723;-74
2022/04/28 05:01:04;;;;;;;6.40;4.53;;;16.50;92.20;;;;;;4961733;28;20204;-74
2022/04/28 05:03:32;;;;;;;13.27;5.70;;;16.50;92.10;;;;;;4965693;28;21743;-73
2022/04/28 05:06:01;;;;;;;9.23;5.33;;;16.50;92.00;;;;;;4964188;28;20198;-74
2022/04/28 05:08:29;;;;;;;9.67;4.30;;;16.60;92.20;;;;;;4963973;28;20205;-72
2022/04/28 05:10:57;;;;;;;7.83;4.93;;;16.60;92.10;;;;;;4961693;28;20209;-73
2022/04/28 05:13:27;;;;;;;11.83;5.47;;;16.60;91.90;;;;;;4967535;28;20864;-73
2022/04/28 05:15:55;;;;;;;9.77;5.77;;;16.60;91.90;;;;;;4967302;28;22143;-72
2022/04/28 05:18:24;;;;;;;8.80;4.80;;;16.70;91.80;;;;;;4965741;28;20861;-74
2022/04/28 05:20:52;;;;;;;8.20;4.77;;;16.70;91.70;;;;;;4965451;28;20201;-75
2022/04/28 05:23:21;;;;;;;7.67;4.93;;;16.70;91.60;;;;;;4965758;28;20638;-73
2022/04/28 05:25:50;;;;;;;8.50;4.93;;;16.80;91.50;;;;;;4965783;28;20206;-73
2022/04/28 05:28:18;;;;;;;9.20;4.83;;;16.80;91.50;;;;;;4962951;28;20200;-75
2022/04/28 05:30:49;;;;;;;9.53;4.77;;;16.90;91.40;;;;;;4963155;28;21133;-74
2022/04/28 05:33:17;;;;;;;7.80;4.67;;;17.00;91.40;;;;;;4964238;28;20196;-72
2022/04/28 05:35:46;;;;;;;8.17;4.63;;;17.10;91.30;;;;;;4963953;28;20600;-73
2022/04/28 05:38:14;;;;;;;9.60;4.90;;;17.10;91.40;;;;;;4963517;28;20197;-73
2022/04/28 05:40:43;;;;;;;6.60;4.30;;;17.10;91.30;;;;;;4964018;28;20198;-76
2022/04/28 05:46:00;;;;;;;6.33;4.20;;;17.30;91.30;;;;;;4962972;28;20193;-73
2022/04/28 05:48:29;;;;;;;9.43;4.60;;;17.40;91.30;;;;;;4962310;28;20194;-74
2022/04/28 05:50:59;;;;;;;8.50;4.27;;;17.40;91.10;;;;;;4961291;28;21020;-73
2022/04/28 05:53:28;;;;;;;8.27;4.77;;;17.50;91.00;;;;;;4959057;28;20193;-72
2022/04/28 05:55:56;;;;;;;6.43;4.17;;;17.60;91.00;;;;;;4973381;28;20933;-72
2022/04/28 05:58:25;;;;;;;7.10;4.33;;;17.60;90.80;;;;;;4982883;28;20677;-74
2022/04/28 06:00:54;;;;;;;6.87;4.27;;;17.70;90.70;;;;;;4982103;28;20767;-73
2022/04/28 06:03:26;;;;;;;7.20;4.03;;;17.80;90.60;;;;;;4982154;28;20194;-73
2022/04/28 06:05:57;;;;;;;7.07;4.20;;;17.80;90.50;;;;;;4984397;28;20208;-73
2022/04/28 06:08:25;;;;;;;7.73;4.60;;;17.80;90.40;;;;;;4982498;28;20201;-73
2022/04/28 06:10:53;;;;;;;9.70;4.40;;;17.90;90.30;;;;;;4983719;28;20201;-74
2022/04/28 06:13:22;;;;;;;6.87;4.10;;;17.90;90.20;;;;;;4977702;28;20667;-74
2022/04/28 06:15:51;;;;;;;7.77;4.73;;;17.90;90.10;;;;;;4981461;28;20235;-74
2022/04/28 06:18:20;;;;;;;8.93;4.60;;;18.00;90.00;;;;;;4982673;28;20192;-74
2022/04/28 06:20:49;;;;;;;7.57;4.60;;;18.00;90.00;;;;;;4982866;28;20926;-75
2022/04/28 06:23:18;;;;;;;7.30;4.80;;;18.00;89.70;;;;;;4980399;28;20213;-76
2022/04/28 06:25:47;;;;;;;8.53;5.10;;;18.00;89.50;;;;;;4983089;28;20205;-74
2022/04/28 06:28:15;;;;;;;7.70;4.70;;;18.10;89.60;;;;;;4983147;28;20736;-75
2022/04/28 06:30:43;;;;;;;7.97;4.40;;;18.10;89.50;;;;;;4982224;28;20944;-76
2022/04/28 06:33:12;;;;;;;6.60;4.60;;;18.10;89.40;;;;;;4983497;28;20196;-77
2022/04/28 06:35:40;;;;;;;6.47;4.33;;;18.30;89.30;;;;;;4983596;28;20239;-74
2022/04/28 06:38:10;;;;;;;6.80;4.30;;;18.30;89.10;;;;;;4983241;28;20839;-74
2022/04/28 06:40:38;;;;;;;10.53;5.00;;;18.40;88.80;;;;;;4982772;28;20316;-74
2022/04/28 06:43:07;;;;;;;7.03;4.30;;;18.40;88.60;;;;;;4980754;28;20185;-74
2022/04/28 06:45:36;;;;;;;8.00;4.43;;;18.50;88.50;;;;;;4982444;28;20193;-74
2022/04/28 06:48:05;;;;;;;10.70;4.70;;;18.60;88.40;;;;;;4981668;28;20284;-74
2022/04/28 06:50:34;;;;;;;6.37;4.30;;;18.60;88.70;;;;;;4982643;28;20200;-73
2022/04/28 06:53:02;;;;;;;9.17;4.47;;;18.60;87.80;;;;;;4981479;28;20199;-74
2022/04/28 06:55:32;;;;;;;7.13;4.07;;;18.60;86.90;;;;;;4982810;28;20245;-73
2022/04/28 06:58:01;;;;;;;7.23;4.10;;;18.70;86.90;;;;;;4982915;28;20211;-73
2022/04/28 07:00:29;;;;;;;10.73;4.33;;;18.70;86.90;;;;;;4983529;28;20861;-73
2022/04/28 07:02:57;;;;;;;7.07;4.60;;;18.70;86.60;;;;;;4982646;28;20523;-74
2022/04/28 07:05:26;;;;;;;8.43;4.50;;;18.80;86.80;;;;;;4981215;28;20821;-75
2022/04/28 07:07:54;;;;;;;6.87;4.30;;;18.90;86.80;;;;;;4984526;28;20201;-74
2022/04/28 07:10:22;;;;;;;7.77;4.77;;;18.90;86.60;;;;;;4981748;28;20205;-74
2022/04/28 07:12:52;;;;;;;9.23;4.53;;;19.00;86.40;;;;;;4982082;28;20302;-73
2022/04/28 07:15:21;;;;;;;9.97;4.83;;;19.10;86.40;;;;;;4982525;28;20227;-74
2022/04/28 07:17:49;;;;;;;7.00;4.53;;;19.10;86.10;;;;;;4983938;28;20314;-75
2022/04/28 07:20:18;;;;;;;6.83;4.50;;;19.10;86.00;;;;;;4982678;28;20628;-72
2022/04/28 07:22:46;;;;;;;6.97;4.37;;;19.20;85.90;;;;;;4984053;28;20215;-74
2022/04/28 07:25:15;;;;;;;8.57;4.50;;;19.20;85.70;;;;;;4981138;28;20196;-75
2022/04/28 07:27:43;;;;;;;7.87;4.30;;;19.20;85.50;;;;;;4983590;28;20200;-74
2022/04/28 07:30:15;;;;;;;8.77;4.40;;;19.30;85.50;;;;;;4982605;28;20211;-73
2022/04/28 07:32:43;;;;;;;7.33;4.57;;;19.30;85.10;;;;;;4945956;28;20207;-74
2022/04/28 07:35:12;;;;;;;6.90;4.50;;;19.30;84.50;;;;;;4982231;28;20933;-74
2022/04/28 07:37:40;;;;;;;8.20;4.40;;;19.30;84.60;;;;;;4983678;28;20208;-76
2022/04/28 07:40:10;;;;;;;7.83;4.83;;;19.40;84.40;;;;;;4983707;28;20207;-76
2022/04/28 07:42:38;;;;;;;7.20;4.17;;;19.40;84.40;;;;;;4975818;28;20197;-74
2022/04/28 07:45:07;;;;;;;5.83;3.67;;;19.40;84.20;;;;;;4981477;28;20197;-76
2022/04/28 07:47:37;;;;;;;6.40;3.83;;;19.40;83.30;;;;;;4984981;28;20351;-75
2022/04/28 07:50:06;;;;;;;6.53;3.60;;;19.40;83.20;;;;;;4982886;28;20189;-77
2022/04/28 07:52:36;;;;;;;9.83;4.10;;;19.40;83.30;;;;;;4980141;28;20201;-74
2022/04/28 07:55:05;;;;;;;10.17;3.57;;;19.40;83.40;;;;;;4982084;28;20320;-73
2022/04/28 07:57:33;;;;;;;5.20;2.73;;;19.30;82.90;;;;;;4981944;28;20208;-74
2022/04/28 08:00:03;;;;;;;8.53;4.33;;;19.30;82.20;;;;;;4982168;28;21152;-73
2022/04/28 08:02:32;;;;;;;8.43;3.43;;;19.20;82.50;;;;;;4981096;28;20204;-74
2022/04/28 08:05:04;;;;;;;7.57;4.07;;;19.20;82.00;;;;;;4981462;28;20204;-74
2022/04/28 08:07:33;;;;;;;6.27;3.97;;;19.20;82.00;;;;;;4948600;28;20199;-73
2022/04/28 08:10:02;;;;;;;9.57;3.47;;;19.20;82.30;;;;;;4979243;28;20265;-74
2022/04/28 08:12:30;;;;;;;5.57;3.40;;;19.10;81.90;;;;;;4983467;28;20204;-73
2022/04/28 08:15:15;;;;;;;6.83;3.67;;;19.20;82.00;;;;;;4980865;28;20215;-74
2022/04/28 08:17:44;;;;;;;10.10;4.07;;;19.20;82.20;;;;;;4983044;28;20920;-75
2022/04/28 08:20:14;;;;;;;7.33;3.50;;;19.20;82.30;;;;;;4978254;28;20205;-74
2022/04/28 08:22:42;;;;;;;5.83;3.73;;;19.20;82.30;;;;;;4971129;28;20201;-75
2022/04/28 08:25:10;;;;;;;8.23;4.10;;;19.20;82.20;;;;;;4971478;28;20199;-72
2022/04/28 08:27:39;;;;;;;5.87;3.73;;;19.20;82.20;;;;;;4979712;28;20197;-73
2022/04/28 08:30:08;;;;;;;6.63;4.00;;;19.20;82.20;;;;;;4981696;28;20193;-75
2022/04/28 08:32:36;;;;;;;6.93;4.50;;;19.20;81.70;;;;;;4978292;28;20203;-74
2022/04/28 08:35:05;;;;;;;6.10;3.93;;;19.20;81.60;;;;;;4980314;28;20225;-73
2022/04/28 08:37:36;;;;;;;6.30;3.90;;;19.10;81.80;;;;;;4978157;28;20205;-74
2022/04/28 08:40:06;;;;;;;6.03;3.10;;;19.10;82.00;;;;;;4984396;28;20205;-75
2022/04/28 08:42:37;;;;;;;7.10;3.83;;;19.00;81.60;;;;;;4976821;28;20843;-77
2022/04/28 08:45:06;;;;;;;6.27;4.37;;;18.90;81.60;;;;;;4982839;28;20197;-75
2022/04/28 08:47:35;;;;;;;8.60;4.03;;;18.90;82.90;;;;;;4983954;28;20213;-75
2022/04/28 08:50:03;;;;;;;7.73;4.37;;;18.90;83.00;;;;;;4983965;28;20189;-76
2022/04/28 08:52:33;;;;;;;6.87;3.67;;;18.80;83.00;;;;;;4981240;28;20659;-75
2022/04/28 08:55:03;;;;;;;11.30;3.77;;;18.80;83.10;;;;;;4985302;28;20232;-74
2022/04/28 08:57:33;;;;;;;7.43;3.37;;;18.80;82.80;;;;;;4986852;28;20193;-75
2022/04/28 09:00:01;;;;;;;7.47;3.63;;;18.80;82.90;;;;;;4976850;28;20197;-77
2022/04/28 09:02:31;;;;;;;7.60;3.17;;;18.90;82.90;;;;;;4983946;28;20201;-76
2022/04/28 09:05:02;;;;;;;5.87;3.43;;;18.90;82.50;;;;;;4983384;28;20203;-75
2022/04/28 09:07:34;;;;;;;5.67;3.30;;;18.80;82.20;;;;;;4985012;28;20198;-76
2022/04/28 09:10:26;;;;;;;6.03;3.30;;;18.90;82.20;;;;;;4984121;28;20189;-74
2022/04/28 09:14:09;;;;;;;7.50;3.70;;;18.90;82.50;;;;;;4983678;28;20204;-75
2022/04/28 09:15:50;;;;;;;6.83;3.60;;;18.90;82.60;;;;;;4983832;28;20233;-75
2022/04/28 09:18:20;;;;;;;6.20;4.10;;;18.80;82.70;;;;;;4986236;28;20203;-75
2022/04/28 09:20:50;;;;;;;8.33;4.20;;;18.80;83.00;;;;;;4987570;28;20201;-75
2022/04/28 09:23:20;;;;;;;5.57;3.87;;;18.90;83.30;;;;;;4984058;28;20205;-74
2022/04/28 09:25:51;;;;;;;6.77;3.67;;;18.80;83.30;;;;;;4983430;28;20212;-74
2022/04/28 09:28:23;;;;;;;7.90;3.80;;;18.80;83.50;;;;;;4985653;28;20205;-75
2022/04/28 09:30:52;;;;;;;7.83;4.57;;;18.80;83.70;;;;;;4977191;28;20209;-73
2022/04/28 09:33:23;;;;;;;8.83;3.90;;;18.80;83.80;;;;;;4981234;28;20208;-75
2022/04/28 09:35:53;;;;;;;9.43;3.93;;;18.80;83.50;;;;;;4975777;28;20228;-74
2022/04/28 09:38:21;;;;;;;7.70;4.10;;;18.80;83.60;;;;;;4982548;28;20706;-74
2022/04/28 09:43:58;;;;;;;10.63;4.13;;;18.80;83.50;;;;;;4983503;28;20200;-75
2022/04/28 09:46:32;;;;;;;6.67;4.13;;;18.90;83.40;;;;;;4981619;28;20263;-72
2022/04/28 09:49:01;;;;;;;7.30;3.93;;;18.90;83.20;;;;;;4981845;28;20193;-74
2022/04/28 09:51:30;;;;;;;6.63;3.77;;;18.90;83.40;;;;;;4980537;28;20655;-73
2022/04/28 09:54:04;;;;;;;7.40;3.70;;;18.80;83.30;;;;;;4981265;28;20200;-74
2022/04/28 09:56:35;;;;;;;4.77;3.20;;;18.80;83.20;;;;;;4980093;28;20236;-74
2022/04/28 09:59:06;;;;;;;7.27;3.90;;;18.80;83.00;;;;;;4980294;28;20207;-75
2022/04/28 10:01:34;;;;;;;9.80;5.07;;;18.80;83.30;;;;;;4982282;28;20192;-75
2022/04/28 10:04:03;;;;;;;6.80;3.83;;;18.80;83.50;;;;;;4981845;28;20196;-73
2022/04/28 10:06:33;;;;;;;7.10;4.30;;;18.80;84.00;;;;;;4982701;28;20220;-73
2022/04/28 10:09:09;;;;;;;7.53;4.37;;;18.70;83.90;;;;;;4980855;28;20196;-75
2022/04/28 10:11:39;;;;;;;7.57;4.20;;;18.70;84.40;;;;;;4981331;28;20563;-75
2022/04/28 10:14:16;;;;;;;5.90;3.93;;;18.70;84.70;;;;;;4982479;28;20203;-74
2022/04/28 10:16:48;;;;;;;10.10;4.27;;;18.60;85.20;;;;;;4981775;28;20208;-76
2022/04/28 10:19:20;;;;;;;6.03;4.07;;;18.70;85.60;;;;;;4982898;28;20274;-75
2022/04/28 10:21:53;;;;;;;9.87;4.23;;;18.60;85.50;;;;;;4979750;28;20196;-74
2022/04/28 10:33:11;;;;;;;10.20;5.70;;;18.50;86.80;;;;;;4983622;28;20203;-78
2022/04/28 10:35:42;;;;;;;6.33;4.40;;;18.50;87.50;;;;;;4982078;28;20192;-79
2022/04/28 10:38:18;;;;;;;10.63;4.97;;;18.50;87.30;;;;;;4981550;28;20259;-81
2022/04/28 10:41:00;;;;;;;7.73;4.93;;;18.60;87.70;;;;;;4973866;28;20231;-80
2022/04/28 10:43:39;;;;;;;8.83;4.90;;;18.60;88.40;;;;;;4975002;28;20600;-79
2022/04/28 10:46:31;;;;;;;7.77;4.70;;;18.50;88.60;;;;;;4982742;28;20209;-81
2022/04/28 10:49:03;;;;;;;8.43;4.60;;;18.50;88.90;;;;;;4981462;28;20202;-79
2022/04/28 10:51:35;;;;;;;9.70;5.33;;;18.50;89.10;;;;;;4981020;28;20834;-77
2022/04/28 10:54:10;;;;;;;8.17;5.00;;;18.50;89.60;;;;;;4981948;28;20816;-79
2022/04/28 10:57:02;;;;;;;8.03;4.60;;;18.40;89.60;;;;;;4983096;28;20236;-78
2022/04/28 10:59:39;;;;;;;9.27;4.80;;;18.40;89.30;;;;;;4983157;28;20189;-78
2022/04/28 11:02:43;;;;;;;8.77;5.13;;;18.40;89.10;;;;;;4984024;28;20291;-78
2022/04/28 11:05:43;;;;;;;8.20;5.10;;;18.50;89.20;;;;;;4975421;28;20210;-78
2022/04/28 11:08:34;;;;;;;8.83;4.80;;;18.50;89.00;;;;;;4976687;28;20202;-77
2022/04/28 11:11:07;;;;;;;7.53;5.20;;;18.50;89.10;;;;;;4974829;28;20192;-77
2022/04/28 11:13:38;;;;;;;9.10;5.33;;;18.60;89.10;;;;;;4980948;28;20787;-78
2022/04/28 11:16:09;;;;;;;7.53;4.90;;;18.60;89.20;;;;;;4982183;28;20197;-79
2022/04/28 11:18:43;;;;;;;9.13;4.80;;;18.70;89.00;;;;;;4980384;28;20298;-77
2022/04/28 11:21:12;;;;;;;8.13;5.30;;;18.60;88.80;;;;;;4975985;28;20205;-78
2022/04/28 11:23:43;;;;;;;9.13;4.90;;;18.70;88.70;;;;;;4981333;28;20212;-77
2022/04/28 11:26:12;;;;;;;9.30;5.33;;;18.70;88.50;;;;;;4982085;28;20188;-77
2022/04/28 11:28:42;;;;;;;7.20;5.17;;;18.70;88.40;;;;;;4981470;28;20189;-78
2022/04/28 11:31:18;;;;;;;11.83;5.57;;;18.70;88.50;;;;;;4978910;28;20605;-77
2022/04/28 11:33:48;;;;;;;10.37;5.57;;;18.60;88.60;;;;;;4982584;28;20211;-77
2022/04/28 11:36:18;;;;;;;8.30;5.30;;;18.60;88.40;;;;;;4982014;28;20200;-77
2022/04/28 11:38:52;;;;;;;8.57;5.70;;;18.60;88.30;;;;;;4982701;28;20197;-77
2022/04/28 11:41:32;;;;;;;12.03;6.60;;;18.60;88.20;;;;;;4980968;28;20200;-77
2022/04/28 11:44:08;;;;;;;9.17;6.47;;;18.70;88.30;;;;;;4981799;28;20210;-77
2022/04/28 11:46:49;;;;;;;10.70;6.53;;;18.60;88.40;;;;;;4972508;28;20357;-78
2022/04/28 11:49:18;;;;;;;10.43;6.43;;;18.60;89.00;;;;;;4979968;28;20192;-77
2022/04/28 11:51:47;;;;;;;11.97;7.40;;;18.60;88.90;;;;;;4981010;28;20212;-77
2022/04/28 11:54:21;;;;;;;9.90;6.17;;;18.50;89.40;;;;;;4978508;28;21284;-77
2022/04/28 11:56:50;;;;;;;9.40;6.80;;;18.50;89.70;;;;;;4982164;28;20237;-77
2022/04/28 11:59:19;;;;;;;9.00;6.33;;;18.50;89.50;;;;;;4981998;28;20200;-77
2022/04/28 12:01:50;;;;;;;10.23;6.50;;;18.50;89.40;;;;;;4981674;28;20220;-77
2022/04/28 12:04:18;;;;;;;10.83;6.23;;;18.50;89.70;;;;;;4979327;28;20208;-77
2022/04/28 12:06:48;;;;;;;9.80;6.20;;;18.50;89.60;;;;;;4980507;28;20760;-77
2022/04/28 12:14:50;;;;;;;8.80;5.70;;;18.50;89.70;;;;;;4984215;28;20197;-77
2022/04/28 12:20:10;;;;;;;9.43;5.90;;;18.50;90.00;;;;;;4987074;28;20606;-78
2022/04/28 12:22:40;;;;;;;10.80;6.90;;;18.40;90.30;;;;;;4984848;28;20193;-77
2022/04/28 12:25:11;;;;;;;8.67;6.43;;;18.40;90.40;;;;;;4984486;28;20197;-78
2022/04/28 12:27:44;;;;;;;8.17;5.57;;;18.40;90.40;;;;;;4985185;28;20185;-78
2022/04/28 12:30:14;;;;;;;8.77;5.93;;;18.40;90.40;;;;;;4985621;28;20192;-77
2022/04/28 12:32:49;;;;;;;9.97;5.13;;;18.50;90.30;;;;;;4982693;28;21170;-79
2022/04/28 12:35:26;;;;;;;14.17;6.70;;;18.50;90.40;;;;;;4984980;28;20247;-79
2022/04/28 12:38:00;;;;;;;8.90;6.07;;;18.60;90.50;;;;;;4983970;28;20234;-82
2022/04/28 12:40:37;;;;;;;7.27;5.60;;;18.60;90.40;;;;;;4984955;28;20196;-77
2022/04/28 12:43:06;;;;;;;8.70;5.10;;;18.60;90.40;;;;;;4984261;28;20188;-77
2022/04/28 12:45:47;;;;;;;8.37;5.70;;;18.70;90.30;;;;;;4985194;28;20201;-78
2022/04/28 12:48:31;;;;;;;8.00;5.70;;;18.70;90.30;;;;;;4985370;28;20610;-81
2022/04/28 12:51:11;;;;;;;8.13;5.60;;;18.60;90.20;;;;;;4981861;28;20193;-77
2022/04/28 12:53:41;;;;;;;9.73;6.10;;;18.70;90.10;;;;;;4984453;28;20339;-78
2022/04/28 12:56:12;;;;;;;8.77;5.80;;;18.70;90.20;;;;;;4985271;28;20453;-78
2022/04/28 12:58:42;;;;;;;10.93;5.60;;;18.70;90.10;;;;;;4982759;28;20682;-77
2022/04/28 13:01:12;;;;;;;8.17;5.47;;;18.80;90.10;;;;;;4985266;28;20188;-77
2022/04/28 13:03:52;;;;;;;7.00;4.50;;;18.80;90.00;;;;;;4985970;28;20727;-77
2022/04/28 13:06:21;;;;;;;11.03;5.23;;;18.80;90.00;;;;;;4983226;28;20783;-77
2022/04/28 13:08:51;;;;;;;8.63;5.17;;;18.80;89.90;;;;;;4983896;28;20201;-78
2022/04/28 13:11:25;;;;;;;9.50;5.20;;;18.80;89.80;;;;;;4983239;28;20250;-76
2022/04/28 13:13:54;;;;;;;8.13;5.20;;;18.90;89.80;;;;;;4980321;28;20948;-76
2022/04/28 13:16:23;;;;;;;9.03;4.97;;;18.90;89.80;;;;;;4980874;28;20186;-77
2022/04/28 13:18:53;;;;;;;10.10;5.27;;;18.90;89.80;;;;;;4975562;28;20228;-77
2022/04/28 13:21:22;;;;;;;9.37;5.47;;;18.90;89.50;;;;;;4983138;28;20200;-77
2022/04/28 13:23:56;;;;;;;9.90;5.30;;;18.90;89.20;;;;;;4982593;28;21280;-76
2022/04/28 13:26:25;;;;;;;8.13;4.87;;;18.90;89.20;;;;;;4984105;28;20193;-78
2022/04/28 13:28:55;;;;;;;7.37;4.87;;;18.80;88.90;;;;;;4983048;28;20208;-77
2022/04/28 13:31:24;;;;;;;8.73;5.10;;;18.80;88.90;;;;;;4980382;28;20185;-76
2022/04/28 13:33:55;;;;;;;6.93;4.83;;;18.80;88.90;;;;;;4985601;28;20216;-75
2022/04/28 13:36:24;;;;;;;7.27;5.37;;;18.80;89.30;;;;;;4984946;28;20192;-77
2022/04/28 13:38:53;;;;;;;7.13;5.33;;;18.70;89.10;;;;;;4971963;28;20229;-77
2022/04/28 13:41:28;;;;;;;7.53;5.13;;;18.70;89.10;;;;;;4981304;28;20204;-77
2022/04/28 13:43:57;;;;;;;10.00;6.17;;;18.70;89.30;;;;;;4982823;28;20197;-77